Time;durP1;ratioP1;P1;durP2;ratioP2;P2;SDS_P1;SDS_P2;PMS_P1;PMS_P2;Temp;Humidity;BMP_temperature;BMP_pressure;BME280_temperature;BME280_humidity;BME280_pressure;Samples;Min_cycle;Max_cycle;Signal;HPM_P1;HPM_P2
2022/09/08 00:00:54;;;;;;;;;1.00;0.25;;;;;18.99;54.10;100499.47;5000482;28;45387;-61
2022/09/08 00:03:22;;;;;;;;;1.00;1.00;;;;;19.00;54.21;100500.31;5000313;28;45402;-60
2022/09/08 00:06:01;;;;;;;;;0.50;0.50;;;;;19.01;54.75;100504.69;5000252;28;45473;-60
2022/09/08 00:08:28;;;;;;;;;1.50;1.50;;;;;19.02;54.29;100517.06;5000366;28;45329;-60
2022/09/08 00:10:57;;;;;;;;;0.75;0.75;;;;;19.04;54.43;100511.66;4999948;28;45359;-60
2022/09/08 00:13:25;;;;;;;;;1.50;1.00;;;;;19.03;54.14;100515.25;5000317;28;45453;-60
2022/09/08 00:15:50;;;;;;;;;2.00;1.00;;;;;19.05;54.75;100514.22;5000308;28;45162;-60
2022/09/08 00:18:16;;;;;;;;;2.00;0.50;;;;;19.01;54.60;100504.69;5000338;28;46243;-60
2022/09/08 00:20:42;;;;;;;;;1.00;1.00;;;;;19.02;54.42;100508.22;5000233;28;45181;-61
2022/09/08 00:23:07;;;;;;;;;0.75;0.75;;;;;19.05;54.54;100511.56;5000222;28;45554;-60
2022/09/08 00:25:33;;;;;;;;;2.75;2.25;;;;;19.03;54.28;100513.47;4999950;28;46107;-60
2022/09/08 00:27:58;;;;;;;;;1.00;1.00;;;;;18.98;55.08;100510.16;4999604;28;46164;-60
2022/09/08 00:30:24;;;;;;;;;1.00;1.00;;;;;18.91;54.87;100500.81;5000125;28;45322;-61
2022/09/08 00:32:49;;;;;;;;;1.25;1.00;;;;;18.93;54.89;100514.88;4999644;28;45588;-61
2022/09/08 00:35:18;;;;;;;;;2.00;2.00;;;;;18.92;54.70;100516.69;4999965;28;45515;-61
2022/09/08 00:37:46;;;;;;;;;0.50;0.50;;;;;18.88;54.87;100508.91;4979095;28;45685;-61
2022/09/08 00:40:12;;;;;;;;;0.75;0.75;;;;;18.87;54.69;100518.72;4982549;28;45279;-60
2022/09/08 00:42:38;;;;;;;;;1.00;0.75;;;;;18.84;54.65;100522.41;4999746;28;45516;-61
2022/09/08 00:45:04;;;;;;;;;3.00;1.00;;;;;18.82;54.78;100520.75;4999691;28;45323;-61
2022/09/08 00:47:36;;;;;;;;;0.50;0.50;;;;;18.80;54.77;100511.97;4999890;28;46349;-61
2022/09/08 00:50:09;;;;;;;;;2.75;1.00;;;;;18.79;54.76;100508.47;5001771;28;46156;-61
2022/09/08 00:52:44;;;;;;;;;3.00;2.00;;;;;18.77;55.10;100515.66;4999991;28;45247;-61
2022/09/08 00:55:11;;;;;;;;;2.00;1.50;;;;;18.73;54.79;100508.78;4999726;28;45464;-61
2022/09/08 00:57:36;;;;;;;;;2.75;1.00;;;;;18.73;54.88;100510.56;4999467;28;45355;-61
2022/09/08 01:00:05;;;;;;;;;2.00;1.25;;;;;18.72;55.41;100504.41;4999668;28;45239;-61
2022/09/08 01:02:31;;;;;;;;;1.00;1.00;;;;;18.72;55.09;100511.53;4999963;28;45354;-61
2022/09/08 01:05:01;;;;;;;;;3.00;1.25;;;;;18.69;54.84;100504.53;5002110;28;45338;-61
2022/09/08 01:13:41;;;;;;;;;1.50;1.00;;;;;18.65;55.11;100508.31;5000226;28;45521;-61
2022/09/08 01:16:07;;;;;;;;;1.00;0.75;;;;;18.65;54.93;100498.53;5003061;28;45333;-61
2022/09/08 01:18:35;;;;;;;;;1.00;1.00;;;;;18.68;54.83;100510.81;5003149;28;46138;-61
2022/09/08 01:21:51;;;;;;;;;1.00;1.00;;;;;18.69;54.87;100512.53;5003071;28;45183;-61
2022/09/08 01:24:40;;;;;;;;;1.00;1.00;;;;;18.70;54.98;100521.38;4980121;28;45264;-61
2022/09/08 01:27:21;;;;;;;;;3.00;1.00;;;;;18.71;55.19;100518.63;5002381;28;45326;-61
2022/09/08 01:29:49;;;;;;;;;1.00;1.00;;;;;18.68;55.20;100519.66;5002764;28;45333;-61
2022/09/08 01:32:15;;;;;;;;;1.00;1.00;;;;;18.67;54.96;100520.59;5002457;28;45338;-61
2022/09/08 01:34:43;;;;;;;;;1.00;1.00;;;;;18.65;54.88;100513.63;5002949;28;45345;-61
2022/09/08 01:37:08;;;;;;;;;1.00;1.00;;;;;18.65;54.96;100526.94;5002571;28;45315;-61
2022/09/08 01:39:34;;;;;;;;;1.50;1.00;;;;;18.63;54.90;100512.88;5002634;28;45340;-61
2022/09/08 01:42:00;;;;;;;;;0.00;0.00;;;;;18.61;54.77;100512.94;5002631;28;46287;-61
2022/09/08 01:44:26;;;;;;;;;1.25;0.25;;;;;18.63;54.93;100515.53;5002813;28;45168;-61
2022/09/08 01:46:52;;;;;;;;;1.00;1.00;;;;;18.59;55.11;100511.28;5001822;28;45509;-61
2022/09/08 01:49:17;;;;;;;;;4.00;1.25;;;;;18.57;55.15;100516.69;5009126;28;46063;-61
2022/09/08 01:51:42;;;;;;;;;2.00;0.75;;;;;18.53;54.83;100520.47;4997969;28;45486;-61
2022/09/08 01:54:08;;;;;;;;;1.75;1.00;;;;;18.48;54.88;100523.34;5002740;28;45444;-61
2022/09/08 01:56:35;;;;;;;;;0.25;0.25;;;;;18.45;55.08;100526.16;4982960;28;45372;-61
2022/09/08 01:59:00;;;;;;;;;1.25;1.25;;;;;18.40;55.27;100530.00;5002320;28;46464;-61
2022/09/08 02:01:26;;;;;;;;;2.50;1.25;;;;;18.41;54.97;100537.88;5002341;28;45327;-61
2022/09/08 02:03:51;;;;;;;;;2.50;1.00;;;;;18.37;55.20;100541.66;5002620;28;45728;-61
2022/09/08 02:06:16;;;;;;;;;1.00;1.00;;;;;18.33;54.98;100540.94;5002274;28;45488;-61
2022/09/08 02:08:43;;;;;;;;;3.75;1.00;;;;;18.29;55.25;100536.72;5002160;28;45282;-61
2022/09/08 02:11:09;;;;;;;;;2.50;1.00;;;;;18.29;55.27;100533.19;5001766;28;45248;-61
2022/09/08 02:13:35;;;;;;;;;1.25;1.00;;;;;18.26;55.38;100530.69;5002364;28;45300;-61
2022/09/08 02:16:06;;;;;;;;;1.75;1.75;;;;;18.25;55.10;100526.28;5001358;28;45271;-61
2022/09/08 02:18:32;;;;;;;;;0.75;0.75;;;;;18.17;55.07;100530.19;5002079;28;46374;-61
2022/09/08 02:21:18;;;;;;;;;1.75;0.50;;;;;18.15;55.58;100534.75;5001939;28;45255;-61
2022/09/08 02:23:46;;;;;;;;;3.00;3.00;;;;;18.13;55.29;100533.94;5002109;28;45293;-61
2022/09/08 02:26:16;;;;;;;;;1.75;1.00;;;;;18.05;55.51;100533.47;5001789;28;45224;-61
2022/09/08 02:28:42;;;;;;;;;2.75;2.75;;;;;18.05;55.75;100525.50;5000729;28;46171;-61
2022/09/08 02:31:07;;;;;;;;;1.00;0.50;;;;;18.05;55.88;100524.63;5002139;28;45574;-61
2022/09/08 02:33:33;;;;;;;;;5.75;3.00;;;;;18.03;55.85;100528.19;5001828;28;45292;-61
2022/09/08 02:35:58;;;;;;;;;0.50;0.50;;;;;18.02;55.86;100531.81;4981156;28;45275;-61
2022/09/08 02:38:25;;;;;;;;;2.00;1.00;;;;;18.03;55.84;100522.03;4997309;28;46947;-61
2022/09/08 02:40:51;;;;;;;;;0.50;0.50;;;;;18.05;55.94;100516.63;5001710;28;45457;-61
2022/09/08 02:43:17;;;;;;;;;2.00;1.00;;;;;18.03;56.03;100517.56;5001673;28;45485;-61
2022/09/08 02:45:42;;;;;;;;;1.00;1.00;;;;;18.05;55.97;100517.53;4988138;28;45230;-61
2022/09/08 02:48:08;;;;;;;;;2.00;1.00;;;;;17.99;55.67;100509.84;5001491;28;46265;-61
2022/09/08 02:50:34;;;;;;;;;1.00;1.00;;;;;18.03;55.96;100516.72;5001886;28;45461;-61
2022/09/08 02:53:00;;;;;;;;;1.25;1.25;;;;;18.02;55.73;100512.34;5001835;28;45398;-61
2022/09/08 02:55:26;;;;;;;;;2.00;2.00;;;;;18.02;55.93;100507.91;5001816;28;45481;-61
2022/09/08 02:57:52;;;;;;;;;1.00;1.00;;;;;18.03;56.17;100500.78;5001520;28;46365;-61
2022/09/08 03:00:20;;;;;;;;;1.00;1.00;;;;;18.00;55.86;100500.94;5001498;28;45368;-61
2022/09/08 03:02:47;;;;;;;;;2.00;2.00;;;;;17.97;55.97;100499.25;5001205;28;45381;-61
2022/09/08 03:05:13;;;;;;;;;2.00;1.00;;;;;17.98;56.21;100494.81;5000887;28;45182;-61
2022/09/08 03:07:38;;;;;;;;;3.00;3.00;;;;;17.97;56.16;100493.09;5001164;28;46375;-61
2022/09/08 03:10:05;;;;;;;;;1.00;1.00;;;;;17.97;55.85;100485.13;5001325;28;45335;-61
2022/09/08 03:12:32;;;;;;;;;2.00;1.00;;;;;17.93;55.77;100488.84;5001120;28;45396;-61
2022/09/08 03:14:57;;;;;;;;;1.50;1.25;;;;;17.89;56.15;100482.81;5001494;28;45523;-62
2022/09/08 03:17:22;;;;;;;;;2.25;2.00;;;;;17.90;55.99;100483.66;4983152;28;47198;-61
2022/09/08 03:19:49;;;;;;;;;3.00;1.00;;;;;17.87;55.83;100487.31;5001288;28;45296;-61
2022/09/08 03:22:15;;;;;;;;;4.00;1.25;;;;;17.80;56.20;100476.16;5001168;28;45425;-62
2022/09/08 03:24:42;;;;;;;;;1.00;1.00;;;;;17.83;56.14;100483.09;5001249;28;45231;-62
2022/09/08 03:27:07;;;;;;;;;0.00;0.00;;;;;17.77;56.29;100478.94;5000642;28;45436;-61
2022/09/08 03:29:33;;;;;;;;;4.00;2.25;;;;;17.76;56.43;100469.25;5001080;28;45235;-61
2022/09/08 03:31:58;;;;;;;;;6.00;2.00;;;;;17.77;56.32;100470.97;5001224;28;45566;-62
2022/09/08 03:34:25;;;;;;;;;2.75;2.75;;;;;17.73;56.28;100479.19;5000524;28;45390;-61
2022/09/08 03:36:51;;;;;;;;;2.00;2.00;;;;;17.68;56.67;100476.72;5000876;28;45262;-62
2022/09/08 03:39:16;;;;;;;;;7.50;3.50;;;;;17.69;56.55;100466.03;4980026;28;45370;-62
2022/09/08 03:41:41;;;;;;;;;3.50;3.50;;;;;17.65;56.61;100472.44;4994689;28;45512;-62
2022/09/08 03:44:09;;;;;;;;;3.00;3.00;;;;;17.62;56.35;100463.75;4979826;28;45535;-62
2022/09/08 03:46:34;;;;;;;;;3.50;3.50;;;;;17.64;56.89;100465.38;4995035;28;46202;-62
2022/09/08 03:48:59;;;;;;;;;6.00;4.75;;;;;17.63;56.78;100463.66;5000494;28;45343;-62
2022/09/08 03:51:26;;;;;;;;;6.25;6.25;;;;;17.62;56.53;100483.22;5000870;28;45140;-62
2022/09/08 03:53:53;;;;;;;;;4.00;4.00;;;;;17.60;56.92;100478.91;5000784;28;45267;-61
2022/09/08 03:56:19;;;;;;;;;3.00;3.00;;;;;17.59;56.95;100475.38;4999943;28;46236;-61
2022/09/08 03:58:45;;;;;;;;;5.25;3.75;;;;;17.56;57.11;100467.56;5000678;28;45336;-61
2022/09/08 04:01:13;;;;;;;;;5.00;5.00;;;;;17.61;56.96;100467.31;5000572;28;45339;-61
2022/09/08 04:03:39;;;;;;;;;4.25;4.25;;;;;17.62;57.21;100479.69;5000798;28;45252;-62
2022/09/08 04:06:05;;;;;;;;;3.00;3.00;;;;;17.59;57.33;100474.53;5000316;28;45291;-61
2022/09/08 04:08:31;;;;;;;;;6.00;4.75;;;;;17.64;57.26;100469.84;5000821;28;45360;-62
2022/09/08 04:10:57;;;;;;;;;3.75;3.75;;;;;17.67;57.50;100473.22;4999945;28;45255;-61
2022/09/08 04:13:23;;;;;;;;;5.50;5.50;;;;;17.65;57.10;100463.59;5000432;28;45216;-61
2022/09/08 04:15:48;;;;;;;;;7.00;6.25;;;;;17.69;57.46;100465.19;5000063;28;46229;-61
2022/09/08 04:18:13;;;;;;;;;5.25;5.00;;;;;17.65;57.37;100464.47;5000717;28;45310;-62
2022/09/08 04:20:39;;;;;;;;;4.25;4.25;;;;;17.71;57.44;100471.28;5000450;28;45318;-61
2022/09/08 04:23:06;;;;;;;;;5.50;5.50;;;;;17.70;57.36;100462.44;5000188;28;45457;-63
2022/09/08 04:25:31;;;;;;;;;5.50;4.50;;;;;17.75;57.18;100469.31;5000031;28;46206;-62
2022/09/08 04:27:57;;;;;;;;;5.00;5.00;;;;;17.75;57.31;100462.22;4999827;28;45351;-61
2022/09/08 04:30:22;;;;;;;;;6.50;5.50;;;;;17.73;57.45;100466.75;5000404;28;45360;-62
2022/09/08 04:32:48;;;;;;;;;5.00;5.00;;;;;17.77;57.12;100468.31;5000094;28;45532;-62
2022/09/08 04:35:13;;;;;;;;;4.25;4.25;;;;;17.73;57.50;100457.91;5000272;28;45978;-62
2022/09/08 04:37:39;;;;;;;;;6.75;4.75;;;;;17.73;57.38;100465.91;4979188;28;46019;-62
2022/09/08 04:40:06;;;;;;;;;3.00;2.25;;;;;17.81;57.31;100467.25;4993708;28;45204;-62
2022/09/08 04:42:33;;;;;;;;;4.50;3.50;;;;;17.83;57.32;100468.00;4999779;28;45234;-62
2022/09/08 04:44:58;;;;;;;;;5.75;4.75;;;;;17.83;57.32;100468.00;4999752;28;47039;-62
2022/09/08 04:47:24;;;;;;;;;9.50;5.75;;;;;17.82;57.25;100466.31;5000141;28;45326;-62
2022/09/08 04:49:49;;;;;;;;;6.75;4.25;;;;;17.77;57.64;100462.13;5002102;28;45286;-62
2022/09/08 04:52:15;;;;;;;;;5.75;5.75;;;;;17.85;57.51;100474.13;4999997;28;45547;-62
2022/09/08 04:54:41;;;;;;;;;4.50;4.50;;;;;17.87;57.37;100460.75;4999847;28;45864;-62
2022/09/08 04:57:06;;;;;;;;;5.00;4.75;;;;;17.91;57.45;100453.50;4999602;28;45525;-61
2022/09/08 04:59:31;;;;;;;;;4.75;3.50;;;;;17.89;57.47;100461.53;4999964;28;45255;-62
2022/09/08 05:01:56;;;;;;;;;4.00;4.00;;;;;17.86;57.46;100451.03;4999674;28;46307;-61
2022/09/08 05:04:22;;;;;;;;;5.50;4.75;;;;;17.87;57.58;100458.09;4999788;28;46789;-61
2022/09/08 05:06:47;;;;;;;;;7.00;5.50;;;;;17.83;57.52;100461.84;4999940;28;45338;-61
2022/09/08 05:09:13;;;;;;;;;6.75;4.50;;;;;17.84;57.52;100459.09;4999942;28;45399;-62
2022/09/08 05:11:38;;;;;;;;;4.00;4.00;;;;;17.86;57.83;100469.66;4999800;28;45493;-62
2022/09/08 05:14:04;;;;;;;;;6.25;5.00;;;;;17.89;57.58;100474.00;4999527;28;45211;-61
2022/09/08 05:16:30;;;;;;;;;5.50;5.50;;;;;17.87;57.80;100469.59;4999690;28;45282;-63
2022/09/08 05:18:58;;;;;;;;;5.00;2.25;;;;;17.92;57.62;100480.00;4999689;28;45397;-61
2022/09/08 05:21:25;;;;;;;;;7.00;7.00;;;;;17.96;57.46;100475.41;4993443;28;45455;-67
2022/09/08 05:23:52;;;;;;;;;5.50;5.50;;;;;17.96;57.49;100484.28;4976929;28;48133;-68
2022/09/08 05:26:19;;;;;;;;;5.25;5.25;;;;;17.96;57.76;100480.72;4998042;28;45480;-71
2022/09/08 05:28:45;;;;;;;;;8.25;6.25;;;;;18.03;57.50;100483.00;4992809;28;45314;-71
2022/09/08 05:31:20;;;;;;;;;9.50;6.75;;;;;18.05;57.76;100476.75;4994927;28;45480;-72
2022/09/08 05:33:46;;;;;;;;;5.75;5.00;;;;;18.04;57.84;100475.91;4999068;28;46344;-73
2022/09/08 05:36:15;;;;;;;;;8.50;5.75;;;;;18.10;57.11;100486.25;4981192;28;45419;-72
2022/09/08 05:38:41;;;;;;;;;4.50;4.50;;;;;18.11;57.75;100481.78;4981425;28;45413;-73
2022/09/08 05:41:06;;;;;;;;;6.75;5.00;;;;;18.07;57.78;100475.75;4998790;28;45390;-73
2022/09/08 05:43:32;;;;;;;;;8.25;6.25;;;;;18.15;57.56;100472.69;4998834;28;46026;-71
2022/09/08 05:45:57;;;;;;;;;3.25;3.25;;;;;18.20;57.45;100476.00;4999102;28;45473;-73
2022/09/08 05:48:23;;;;;;;;;6.75;5.50;;;;;18.20;57.57;100470.69;5005008;28;45334;-73
2022/09/08 05:50:48;;;;;;;;;4.25;4.25;;;;;18.25;57.56;100479.31;4999826;28;45540;-76
2022/09/08 05:53:14;;;;;;;;;3.25;3.00;;;;;18.27;57.40;100484.53;5002264;28;46162;-70
2022/09/08 05:55:41;;;;;;;;;7.00;4.75;;;;;18.29;57.31;100474.69;5001133;28;45257;-70
2022/09/08 05:58:12;;;;;;;;;5.25;4.50;;;;;18.36;57.37;100486.72;5001767;28;45358;-72
2022/09/08 06:00:38;;;;;;;;;4.00;4.00;;;;;18.40;57.21;100490.97;5002124;28;45552;-71
2022/09/08 06:03:03;;;;;;;;;7.75;5.75;;;;;18.42;57.27;100490.88;5001980;28;45422;-71
2022/09/08 06:05:29;;;;;;;;;5.00;3.00;;;;;18.42;56.76;100486.41;5001844;28;45380;-71
2022/09/08 06:07:54;;;;;;;;;4.00;4.00;;;;;18.44;57.25;100486.31;4994422;28;45398;-69
2022/09/08 06:10:20;;;;;;;;;3.75;3.75;;;;;18.46;57.07;100492.44;5000738;28;45263;-61
2022/09/08 06:12:46;;;;;;;;;6.00;4.00;;;;;18.46;57.19;100489.78;4990391;28;45555;-59
2022/09/08 06:15:11;;;;;;;;;5.75;3.75;;;;;18.50;56.97;100492.22;5002058;28;45457;-59
2022/09/08 06:17:38;;;;;;;;;6.00;4.00;;;;;18.49;56.92;100485.16;5002332;28;45235;-60
2022/09/08 06:20:05;;;;;;;;;4.00;4.00;;;;;18.48;57.41;100495.88;5001691;28;45588;-60
2022/09/08 06:22:32;;;;;;;;;5.00;3.25;;;;;18.41;57.40;100503.31;4999041;28;46254;-60
2022/09/08 06:25:01;;;;;;;;;6.75;5.00;;;;;18.40;57.24;100496.28;5001890;28;45405;-60
2022/09/08 06:27:53;;;;;;;;;4.75;4.00;;;;;18.43;57.25;100496.13;5001332;28;45442;-60
2022/09/08 06:30:19;;;;;;;;;7.50;5.50;;;;;18.43;57.32;100489.94;4983541;28;45774;-60
2022/09/08 06:32:47;;;;;;;;;5.50;4.50;;;;;18.42;57.34;100498.88;5001518;28;45908;-60
2022/09/08 06:35:22;;;;;;;;;7.50;6.25;;;;;18.41;57.64;100491.81;5001441;28;45254;-60
2022/09/08 06:37:56;;;;;;;;;6.50;6.25;;;;;18.41;57.66;100492.66;5001889;28;45232;-60
2022/09/08 06:40:56;;;;;;;;;8.50;5.75;;;;;18.45;57.30;100501.34;5001320;28;45621;-61
2022/09/08 06:43:35;;;;;;;;;8.50;5.25;;;;;18.46;57.39;100501.25;4982759;28;46219;-61
2022/09/08 06:46:09;;;;;;;;;7.00;5.00;;;;;18.50;57.33;100497.53;5001504;28;45230;-60
2022/09/08 06:48:36;;;;;;;;;6.00;4.25;;;;;18.46;57.37;100495.94;4991527;28;45292;-60
2022/09/08 06:51:22;;;;;;;;;4.00;3.75;;;;;18.54;57.40;100502.69;5001145;28;45393;-60
2022/09/08 06:54:00;;;;;;;;;5.75;2.75;;;;;18.56;57.42;100492.84;5001350;28;46134;-60
2022/09/08 06:56:43;;;;;;;;;9.25;6.25;;;;;18.54;57.57;100492.03;4994040;28;45444;-60
2022/09/08 06:59:14;;;;;;;;;8.25;6.25;;;;;18.59;57.13;100487.34;5001105;28;45243;-61
2022/09/08 07:02:02;;;;;;;;;5.00;5.00;;;;;18.61;57.25;100490.78;5001202;28;45413;-60
2022/09/08 07:04:39;;;;;;;;;5.00;4.75;;;;;18.62;57.37;100476.56;5000758;28;46317;-60
2022/09/08 07:07:29;;;;;;;;;11.00;7.75;;;;;18.61;57.40;100486.31;5000812;28;45354;-60
2022/09/08 07:10:13;;;;;;;;;6.00;5.00;;;;;18.65;58.27;100489.69;4991738;28;45470;-60
2022/09/08 07:13:05;;;;;;;;;3.75;3.75;;;;;18.64;57.55;100480.84;5000766;28;45726;-60
2022/09/08 07:16:03;;;;;;;;;6.25;6.25;;;;;18.67;56.73;100495.78;5000954;28;45835;-60
2022/09/08 07:18:37;;;;;;;;;4.00;3.50;;;;;18.66;57.07;100488.75;5000956;28;45369;-60
2022/09/08 07:21:28;;;;;;;;;7.50;6.50;;;;;18.73;57.34;100498.13;4999776;28;45341;-61
2022/09/08 07:23:57;;;;;;;;;6.00;4.00;;;;;18.77;57.05;100493.53;4989958;28;45344;-60
2022/09/08 07:26:22;;;;;;;;;6.75;3.00;;;;;18.83;57.13;100488.72;4999886;28;45419;-60
2022/09/08 07:28:51;;;;;;;;;5.00;3.50;;;;;18.90;56.94;100491.06;4997356;28;45395;-60
2022/09/08 07:31:21;;;;;;;;;7.25;5.50;;;;;18.94;56.96;100496.19;5001066;28;45244;-61
2022/09/08 07:33:52;;;;;;;;;4.50;3.50;;;;;18.97;57.38;100495.16;4982880;28;45350;-60
2022/09/08 07:36:36;;;;;;;;;7.75;5.00;;;;;19.03;57.16;100486.84;5000341;28;46075;-61
2022/09/08 07:39:11;;;;;;;;;3.25;1.75;;;;;19.02;56.98;100486.91;4979604;28;45314;-61
2022/09/08 07:41:47;;;;;;;;;8.00;4.75;;;;;19.03;57.15;100476.19;4993765;28;45227;-61
2022/09/08 07:44:15;;;;;;;;;7.50;3.50;;;;;19.02;56.94;100484.25;5000394;28;45240;-61
2022/09/08 07:47:04;;;;;;;;;6.00;4.75;;;;;19.07;56.87;100488.41;5000404;28;45329;-61
2022/09/08 07:49:58;;;;;;;;;8.75;5.75;;;;;19.09;56.72;100489.16;5000736;28;45449;-61
2022/09/08 07:52:24;;;;;;;;;3.50;3.50;;;;;19.13;56.89;100493.41;4989375;28;45302;-61
2022/09/08 07:55:25;;;;;;;;;4.00;4.00;;;;;19.12;56.77;100485.50;5000197;28;45501;-61
2022/09/08 07:58:16;;;;;;;;;3.00;3.00;;;;;19.09;56.60;100493.63;4993539;28;45412;-61
2022/09/08 08:01:06;;;;;;;;;3.25;3.00;;;;;19.13;56.91;100493.41;5000389;28;45411;-62
2022/09/08 08:03:49;;;;;;;;;4.25;2.75;;;;;19.11;56.54;100500.59;4999318;28;45445;-61
2022/09/08 08:06:33;;;;;;;;;5.50;5.00;;;;;19.17;56.39;100494.94;4999889;28;45434;-61
2022/09/08 08:09:14;;;;;;;;;5.50;3.50;;;;;19.15;56.54;100493.31;5000362;28;45428;-61
2022/09/08 08:11:53;;;;;;;;;6.00;3.50;;;;;19.15;56.53;100498.63;4999241;28;45247;-61
2022/09/08 08:14:46;;;;;;;;;7.25;4.75;;;;;19.11;56.57;100499.75;4999219;28;45374;-61
2022/09/08 08:17:14;;;;;;;;;5.00;4.25;;;;;19.10;56.42;100501.53;5000283;28;45401;-61
2022/09/08 08:20:02;;;;;;;;;4.00;4.00;;;;;19.10;56.65;100506.84;4978968;28;47153;-61
2022/09/08 08:22:28;;;;;;;;;6.25;4.50;;;;;19.11;56.57;100500.59;4995003;28;45446;-61
2022/09/08 08:25:03;;;;;;;;;5.00;4.25;;;;;19.14;56.71;100497.78;5000264;28;45453;-61
2022/09/08 08:27:47;;;;;;;;;5.00;4.00;;;;;19.14;56.32;100505.78;4999790;28;45190;-61
2022/09/08 08:30:19;;;;;;;;;6.00;5.75;;;;;19.16;56.44;100501.19;4980111;28;47430;-61
2022/09/08 08:32:53;;;;;;;;;5.75;3.75;;;;;19.22;56.48;100502.69;4999769;28;45393;-61
2022/09/08 08:35:37;;;;;;;;;5.50;3.25;;;;;19.28;56.38;100496.16;4999926;28;45239;-61
2022/09/08 08:38:04;;;;;;;;;5.75;4.75;;;;;19.31;56.42;100494.19;5000118;28;45443;-61
2022/09/08 08:40:48;;;;;;;;;5.25;4.25;;;;;19.35;56.31;100497.53;4999536;28;46237;-61
2022/09/08 08:43:39;;;;;;;;;6.00;4.75;;;;;19.43;56.37;100507.78;4999723;28;45448;-61
2022/09/08 08:46:23;;;;;;;;;7.75;7.50;;;;;19.49;55.86;100513.63;5000065;28;45448;-61
2022/09/08 08:49:09;;;;;;;;;3.00;3.00;;;;;19.52;55.99;100504.63;4999739;28;45401;-61
2022/09/08 08:51:56;;;;;;;;;4.00;3.00;;;;;19.57;55.58;100531.88;4982934;28;47230;-61
2022/09/08 08:54:39;;;;;;;;;2.50;2.50;;;;;19.59;55.59;100523.78;4999834;28;45169;-61
2022/09/08 08:57:10;;;;;;;;;6.25;5.25;;;;;19.60;55.40;100526.38;4998467;28;45436;-61
2022/09/08 08:59:51;;;;;;;;;3.50;3.50;;;;;19.63;55.36;100522.66;4999416;28;45531;-61
2022/09/08 09:02:38;;;;;;;;;6.00;3.75;;;;;19.67;55.58;100534.03;4999600;28;45433;-61
2022/09/08 09:05:37;;;;;;;;;3.25;3.25;;;;;19.64;55.40;100535.06;4999090;28;45268;-61
2022/09/08 09:08:40;;;;;;;;;2.75;0.25;;;;;19.70;55.34;100545.38;4981176;28;45460;-61
2022/09/08 09:11:27;;;;;;;;;6.00;3.50;;;;;19.69;55.22;100537.47;4998890;28;45627;-62
2022/09/08 09:14:02;;;;;;;;;3.50;3.00;;;;;19.70;55.10;100534.72;4991525;28;46271;-61
2022/09/08 09:16:45;;;;;;;;;4.00;4.00;;;;;19.70;55.24;100545.38;4998574;28;45369;-61
2022/09/08 09:19:22;;;;;;;;;5.00;3.25;;;;;19.70;55.03;100539.16;4999373;28;45398;-61
2022/09/08 09:21:51;;;;;;;;;5.75;3.50;;;;;19.69;55.64;100534.81;4997932;28;45331;-61
2022/09/08 09:24:36;;;;;;;;;4.00;3.00;;;;;19.68;55.05;100538.41;4998617;28;46533;-61
2022/09/08 09:27:12;;;;;;;;;3.25;2.75;;;;;19.70;55.09;100536.50;5002560;28;45338;-61
2022/09/08 09:29:38;;;;;;;;;3.00;3.00;;;;;19.69;54.96;100542.81;4998881;28;45415;-61
2022/09/08 09:32:21;;;;;;;;;3.25;3.00;;;;;19.62;55.13;100542.25;5002587;28;45461;-61
2022/09/08 09:35:20;;;;;;;;;5.50;5.25;;;;;19.62;54.97;100521.81;5002737;28;45616;-61
2022/09/08 09:38:03;;;;;;;;;3.50;3.00;;;;;19.63;55.49;100533.31;5002726;28;45391;-61
2022/09/08 09:40:29;;;;;;;;;4.50;3.25;;;;;19.64;55.37;100527.06;4984685;28;45477;-61
2022/09/08 09:43:37;;;;;;;;;3.00;3.00;;;;;19.72;55.17;100527.50;4981582;28;45332;-61
2022/09/08 09:46:30;;;;;;;;;5.75;3.25;;;;;19.84;55.38;100530.47;4992580;28;45445;-61
2022/09/08 09:49:14;;;;;;;;;5.50;3.00;;;;;19.92;55.29;100520.19;5002452;28;45390;-61
2022/09/08 09:51:52;;;;;;;;;5.00;3.25;;;;;19.97;55.27;100512.78;5002023;28;45291;-61
2022/09/08 09:54:54;;;;;;;;;4.50;4.00;;;;;20.06;55.15;100509.63;5002281;28;46573;-61
2022/09/08 09:57:32;;;;;;;;;4.00;3.50;;;;;20.17;55.41;100508.97;4985088;28;46493;-61
2022/09/08 10:00:25;;;;;;;;;5.25;4.75;;;;;20.27;55.21;100510.16;5002022;28;45781;-61
2022/09/08 10:03:09;;;;;;;;;6.00;5.00;;;;;20.35;54.77;100511.53;5002142;28;45323;-62
2022/09/08 10:06:12;;;;;;;;;5.00;3.25;;;;;20.37;54.49;100502.47;5002112;28;45341;-61
2022/09/08 10:08:59;;;;;;;;;2.25;2.25;;;;;20.36;54.52;100510.56;4971549;28;45358;-61
2022/09/08 10:11:58;;;;;;;;;3.50;2.00;;;;;20.35;55.00;100517.72;5001548;28;45338;-61
2022/09/08 10:14:51;;;;;;;;;3.00;2.00;;;;;20.35;55.01;100511.53;5001887;28;45168;-61
2022/09/08 10:17:52;;;;;;;;;2.75;2.75;;;;;20.33;54.79;100518.78;5001868;28;45387;-61
2022/09/08 10:20:47;;;;;;;;;8.75;5.00;;;;;20.26;54.86;100507.56;5001726;28;45313;-61
2022/09/08 10:23:50;;;;;;;;;5.25;4.25;;;;;20.24;54.53;100498.81;4980671;28;45248;-61
2022/09/08 10:26:37;;;;;;;;;6.50;3.00;;;;;20.23;54.57;100491.75;5001804;28;45254;-61
2022/09/08 10:29:27;;;;;;;;;4.00;2.00;;;;;20.21;54.89;100488.31;4999177;28;45347;-61
2022/09/08 10:32:01;;;;;;;;;4.75;3.75;;;;;20.26;55.20;100487.13;5001933;28;46806;-61
2022/09/08 10:34:57;;;;;;;;;6.75;4.00;;;;;20.37;54.98;100480.28;4989123;28;45536;-62
2022/09/08 10:37:25;;;;;;;;;3.25;3.25;;;;;20.49;55.30;100484.88;5001175;28;45328;-61
2022/09/08 10:39:53;;;;;;;;;7.00;4.25;;;;;20.68;55.00;100467.72;5001922;28;45445;-61
2022/09/08 10:42:40;;;;;;;;;5.50;4.00;;;;;20.86;55.34;100466.66;5001165;28;45228;-61
2022/09/08 10:45:18;;;;;;;;;4.00;1.00;;;;;21.05;54.79;100474.38;5001545;28;45239;-61
2022/09/08 10:48:02;;;;;;;;;2.00;1.00;;;;;21.21;55.06;100466.25;5001947;28;45387;-61
2022/09/08 10:50:29;;;;;;;;;4.00;2.00;;;;;21.46;54.95;100458.47;5001556;28;45525;-61
2022/09/08 10:53:19;;;;;;;;;2.00;1.00;;;;;21.67;54.31;100457.16;5001542;28;46224;-62
2022/09/08 10:56:03;;;;;;;;;1.75;1.75;;;;;21.95;53.73;100463.34;4991137;28;46299;-62
2022/09/08 10:59:09;;;;;;;;;2.25;0.75;;;;;22.18;53.94;100460.94;5001447;28;45338;-61
2022/09/08 11:01:58;;;;;;;;;3.00;2.00;;;;;22.45;53.20;100471.63;4968092;28;45429;-62
2022/09/08 11:04:51;;;;;;;;;2.50;2.50;;;;;22.64;53.48;100454.28;5001120;28;46339;-62
2022/09/08 11:07:53;;;;;;;;;3.00;1.00;;;;;22.84;52.98;100460.91;5001094;28;45366;-62
2022/09/08 11:10:49;;;;;;;;;2.25;2.00;;;;;22.98;52.55;100458.13;4991018;28;45472;-61
2022/09/08 11:13:30;;;;;;;;;3.50;2.25;;;;;23.09;52.06;100465.38;5001108;28;45351;-63
2022/09/08 11:16:25;;;;;;;;;2.25;2.00;;;;;23.27;52.02;100467.75;5001062;28;46018;-62
2022/09/08 11:19:25;;;;;;;;;5.25;2.50;;;;;23.46;52.03;100460.09;4960256;28;45521;-62
2022/09/08 11:22:09;;;;;;;;;1.75;1.50;;;;;23.67;51.88;100468.41;4999851;28;45377;-62
2022/09/08 11:24:49;;;;;;;;;3.00;2.00;;;;;23.80;51.75;100452.25;5001073;28;45401;-62
2022/09/08 11:27:52;;;;;;;;;2.50;2.50;;;;;23.85;50.73;100459.97;5000350;28;46479;-62
2022/09/08 11:30:20;;;;;;;;;3.00;1.00;;;;;23.86;50.23;100467.00;4998151;28;45550;-62
2022/09/08 11:32:53;;;;;;;;;3.00;3.00;;;;;23.78;50.21;100469.44;5000657;28;45837;-62
2022/09/08 11:35:44;;;;;;;;;16.00;14.50;;;;;23.69;49.61;100476.31;5000617;28;45366;-62
2022/09/08 11:38:29;;;;;;;;;7.25;5.25;;;;;23.54;49.47;100483.66;5000706;28;46231;-62
2022/09/08 11:41:19;;;;;;;;;8.00;8.00;;;;;23.37;49.50;100499.16;5000700;28;45393;-61
2022/09/08 11:43:54;;;;;;;;;6.50;4.75;;;;;23.20;49.66;100489.63;5000661;28;45141;-62
2022/09/08 11:46:40;;;;;;;;;0.25;0.25;;;;;23.06;49.81;100500.47;5000711;28;45309;-62
2022/09/08 11:49:14;;;;;;;;;1.00;1.00;;;;;23.00;50.16;100480.28;4987817;28;46110;-62
2022/09/08 11:52:08;;;;;;;;;2.75;2.00;;;;;23.02;50.52;100485.56;5000486;28;45294;-63
2022/09/08 11:54:52;;;;;;;;;4.25;2.50;;;;;23.10;50.73;100479.66;5000719;28;45406;-62
2022/09/08 11:57:21;;;;;;;;;3.00;1.75;;;;;23.12;50.69;100472.34;4999931;28;45378;-62
2022/09/08 12:00:07;;;;;;;;;2.50;2.50;;;;;23.14;50.32;100475.78;5000217;28;46362;-62
2022/09/08 12:02:52;;;;;;;;;2.00;1.50;;;;;23.01;50.52;100473.97;5000457;28;45196;-62